createdAt,value
2022-10-05T00:04:05.000Z,59.59
2022-10-05T00:08:07.577Z,58.50
2022-10-05T00:12:07.993Z,58.87
2022-10-05T00:15:56.445Z,59.82
2022-10-05T00:20:00.464Z,60.03
2022-10-05T00:23:50.148Z,64.33
2022-10-05T00:28:01.086Z,70.48
2022-10-05T00:32:11.819Z,67.04
2022-10-05T00:36:13.778Z,65.19
2022-10-05T00:39:24.314Z,63.74
2022-10-05T00:43:19.912Z,62.90
2022-10-05T00:48:01.028Z,61.96
2022-10-05T00:52:11.628Z,61.33
2022-10-05T00:56:21.998Z,60.48
2022-10-05T01:00:48.087Z,60.70
2022-10-05T01:04:32.549Z,60.86
2022-10-05T01:08:17.933Z,60.37
2022-10-05T01:12:43.606Z,59.76
2022-10-05T01:16:57.695Z,59.48
2022-10-05T01:21:31.579Z,57.22
2022-10-05T01:25:54.029Z,57.06
2022-10-05T01:30:25.935Z,58.53
2022-10-05T01:34:40.981Z,59.54
2022-10-05T01:38:51.450Z,62.99
2022-10-05T01:43:14.962Z,70.29
2022-10-05T01:47:25.910Z,68.91
2022-10-05T01:51:57.880Z,65.90
2022-10-05T01:56:42.629Z,64.24
2022-10-05T02:01:08.920Z,63.09
2022-10-05T02:05:15.987Z,62.02
2022-10-05T02:09:28.429Z,61.05
2022-10-05T02:13:39.054Z,60.37
2022-10-05T02:17:46.991Z,57.86
2022-10-05T02:21:15.002Z,57.48
2022-10-05T02:25:22.950Z,59.55
2022-10-05T02:29:25.579Z,62.47
2022-10-05T02:33:36.274Z,68.08
2022-10-05T02:37:38.466Z,67.22
2022-10-05T02:42:13.870Z,65.42
2022-10-05T02:46:45.955Z,63.66
2022-10-05T02:50:57.140Z,62.96
2022-10-05T02:55:31.259Z,62.68
2022-10-05T02:59:57.296Z,62.14
2022-10-05T03:04:13.908Z,60.82
2022-10-05T03:08:21.824Z,61.46
2022-10-05T03:12:15.265Z,61.22
2022-10-05T03:16:32.105Z,61.35
2022-10-05T03:20:54.258Z,60.89
2022-10-05T03:24:48.858Z,61.26
2022-10-05T03:29:01.476Z,61.08
2022-10-05T03:32:55.663Z,61.42
2022-10-05T03:37:12.300Z,61.43
2022-10-05T03:41:38.315Z,61.03
2022-10-05T03:46:00.390Z,60.61
2022-10-05T03:50:41.769Z,61.22
2022-10-05T03:54:39.115Z,60.78
2022-10-05T03:58:47.029Z,60.93
2022-10-05T04:03:03.876Z,60.68
2022-10-05T04:07:29.982Z,60.59
2022-10-05T04:11:33.999Z,61.15
2022-10-05T04:15:30.611Z,60.96
2022-10-05T04:19:55.527Z,61.73
2022-10-05T04:24:24.629Z,61.27
2022-10-05T04:28:41.524Z,61.84
2022-10-05T04:33:05.879Z,61.91
2022-10-05T04:37:18.298Z,61.47
2022-10-05T04:42:02.970Z,60.96
2022-10-05T04:46:18.845Z,59.88
2022-10-05T04:50:47.152Z,63.89
2022-10-05T04:55:00.799Z,67.93
2022-10-05T04:59:36.151Z,67.32
2022-10-05T05:04:10.438Z,65.00
2022-10-05T05:08:30.169Z,66.30
2022-10-05T05:12:46.476Z,65.06
2022-10-05T05:16:39.086Z,65.28
2022-10-05T05:21:06.806Z,65.80
2022-10-05T05:25:16.661Z,65.05
2022-10-05T05:29:58.155Z,65.92
2022-10-05T05:34:24.294Z,65.65
2022-10-05T05:38:58.420Z,64.28
2022-10-05T05:43:27.422Z,63.56
2022-10-05T05:47:41.131Z,64.45
2022-10-05T05:51:52.052Z,64.26
2022-10-05T05:56:05.805Z,63.10
2022-10-05T06:00:34.804Z,62.63
2022-10-05T06:04:45.274Z,62.61
2022-10-05T06:08:53.371Z,61.78
2022-10-05T06:13:12.768Z,59.82
2022-10-05T06:17:47.918Z,57.95
2022-10-05T06:21:59.205Z,63.75
2022-10-05T06:26:31.410Z,61.92
2022-10-05T06:30:52.915Z,58.06
2022-10-05T06:35:12.910Z,59.01
2022-10-05T06:39:37.823Z,59.42
2022-10-05T06:44:12.557Z,62.38
2022-10-05T06:48:56.984Z,58.07
2022-10-05T06:53:01.558Z,56.91
2022-10-05T06:57:13.461Z,58.79
2022-10-05T07:01:17.982Z,58.31
2022-10-05T07:05:40.852Z,55.68
2022-10-05T07:09:56.240Z,54.70
2022-10-05T07:14:09.677Z,56.20
2022-10-05T07:18:16.256Z,55.33
2022-10-05T07:22:24.270Z,58.18
2022-10-05T07:26:41.192Z,60.58
2022-10-05T07:30:51.912Z,61.84
2022-10-05T07:35:27.167Z,56.90
2022-10-05T07:40:00.546Z,58.96
2022-10-05T07:44:26.927Z,59.37
2022-10-05T07:48:55.975Z,60.64
2022-10-05T07:53:18.634Z,64.10
2022-10-05T07:57:35.759Z,61.12
2022-10-05T08:01:47.106Z,57.59
2022-10-05T08:06:12.677Z,58.72
2022-10-05T08:10:32.632Z,59.96
2022-10-05T08:14:40.395Z,60.68
2022-10-05T08:18:54.023Z,64.46
2022-10-05T08:23:10.631Z,59.86
2022-10-05T08:27:30.323Z,56.82
2022-10-05T08:31:44.195Z,57.46
2022-10-05T08:36:07.235Z,58.16
2022-10-05T08:40:17.731Z,60.48
2022-10-05T08:44:30.224Z,60.16
2022-10-05T08:48:52.575Z,61.74
2022-10-05T08:53:05.193Z,60.88
2022-10-05T08:57:49.766Z,57.56
2022-10-05T09:02:12.760Z,57.06
2022-10-05T09:06:48.288Z,59.84
2022-10-05T09:11:07.212Z,60.46
2022-10-05T09:15:29.916Z,58.56
2022-10-05T09:19:44.072Z,60.17
2022-10-05T09:24:16.107Z,59.57
2022-10-05T09:28:36.353Z,59.31
2022-10-05T09:33:04.429Z,59.30
2022-10-05T09:37:30.258Z,57.31
2022-10-05T09:41:38.372Z,59.27
2022-10-05T09:46:03.014Z,56.21
2022-10-05T09:50:19.897Z,56.96
2022-10-05T09:54:38.693Z,57.50
2022-10-05T09:59:16.844Z,56.92
2022-10-05T10:03:25.120Z,57.21
2022-10-05T10:08:03.380Z,57.21
2022-10-05T10:12:15.740Z,56.70
2022-10-05T10:16:39.115Z,56.61
2022-10-05T10:20:54.497Z,56.15
2022-10-05T10:25:22.169Z,57.19
2022-10-05T10:29:51.178Z,56.74
2022-10-05T10:34:08.097Z,56.13
2022-10-05T10:38:37.102Z,56.61
2022-10-05T10:42:50.646Z,56.39
2022-10-05T10:46:47.330Z,56.98
2022-10-05T10:50:52.759Z,57.64
2022-10-05T10:55:15.777Z,56.13
2022-10-05T10:59:23.611Z,56.16
2022-10-05T11:03:41.420Z,55.77
2022-10-05T11:08:13.132Z,56.27
2022-10-05T11:12:34.673Z,54.75
2022-10-05T11:17:00.902Z,55.64
2022-10-05T11:21:32.982Z,56.12
2022-10-05T11:26:14.167Z,55.75
2022-10-05T11:30:37.131Z,54.95
2022-10-05T11:34:48.114Z,54.50
2022-10-05T11:39:23.366Z,54.85
2022-10-05T11:43:29.740Z,54.70
2022-10-05T11:47:29.051Z,54.71
2022-10-05T11:51:52.217Z,53.95
2022-10-05T12:01:01.406Z,54.25
2022-10-05T12:05:27.290Z,54.51
2022-10-05T12:10:07.183Z,54.63
2022-10-05T12:14:16.535Z,53.19
2022-10-05T12:18:27.276Z,53.35
2022-10-05T12:22:44.400Z,54.10
2022-10-05T12:27:16.508Z,54.12
2022-10-05T12:32:01.282Z,54.27
2022-10-05T12:36:11.956Z,53.97
2022-10-05T12:40:33.696Z,53.67
2022-10-05T12:44:53.175Z,53.99
2022-10-05T12:49:31.313Z,54.28
2022-10-05T12:53:37.874Z,54.23
2022-10-05T12:57:54.795Z,53.45
2022-10-05T13:02:20.952Z,53.51
2022-10-05T13:06:14.569Z,54.26
2022-10-05T13:10:08.151Z,54.42
2022-10-05T13:14:30.008Z,54.46
2022-10-05T13:18:38.241Z,53.62
2022-10-05T13:22:44.775Z,54.11
2022-10-05T13:26:55.574Z,54.58
2022-10-05T13:31:12.703Z,54.54
2022-10-05T13:35:44.822Z,54.09
2022-10-05T13:39:55.656Z,54.73
2022-10-05T13:44:24.891Z,54.63
2022-10-05T13:48:59.836Z,53.63
2022-10-05T13:53:28.958Z,54.46
2022-10-05T13:57:48.732Z,54.83
2022-10-05T14:01:36.705Z,54.98
2022-10-05T14:05:55.835Z,54.98
2022-10-05T14:10:09.795Z,55.62
2022-10-05T14:14:23.757Z,56.14
2022-10-05T14:18:40.433Z,56.41
2022-10-05T14:23:00.164Z,56.90
2022-10-05T14:27:32.182Z,57.05
2022-10-05T14:31:43.060Z,57.15
2022-10-05T14:36:00.041Z,57.55
2022-10-05T14:40:06.416Z,58.30
2022-10-05T14:44:14.247Z,58.61
2022-10-05T14:48:09.356Z,59.38
2022-10-05T14:52:26.110Z,59.51
2022-10-05T14:57:01.158Z,59.66
2022-10-05T15:01:10.162Z,59.57
2022-10-05T15:05:29.868Z,59.88
2022-10-05T15:09:45.154Z,60.32
2022-10-05T15:13:53.277Z,60.63
2022-10-05T15:18:03.765Z,61.30
2022-10-05T15:22:08.281Z,61.77
2022-10-05T15:26:38.761Z,61.90
2022-10-05T15:30:46.642Z,62.08
2022-10-05T15:35:03.206Z,62.06
2022-10-05T15:39:13.872Z,62.86
2022-10-05T15:43:27.534Z,64.82
2022-10-05T15:47:32.999Z,60.03
2022-10-05T15:51:41.869Z,57.65
2022-10-05T15:56:02.196Z,58.46
2022-10-05T16:00:31.365Z,59.52
2022-10-05T16:04:51.308Z,60.47
2022-10-05T16:09:14.568Z,60.58
2022-10-05T16:13:30.466Z,61.63
2022-10-05T16:17:50.255Z,61.86
2022-10-05T16:22:07.072Z,63.64
2022-10-05T16:26:31.265Z,59.37
2022-10-05T16:30:57.647Z,57.81
2022-10-05T16:35:17.606Z,58.55
2022-10-05T16:39:52.755Z,59.35
2022-10-05T16:44:06.397Z,60.79
2022-10-05T16:48:12.771Z,60.61
2022-10-05T16:52:21.301Z,63.02
2022-10-05T16:56:29.935Z,64.12
2022-10-05T17:00:59.238Z,60.52
2022-10-05T17:05:12.369Z,57.24
2022-10-05T17:09:36.871Z,57.54
2022-10-05T17:14:12.225Z,59.01
2022-10-05T17:18:35.189Z,59.08
2022-10-05T17:22:52.213Z,60.79
2022-10-05T17:27:02.836Z,61.99
2022-10-05T17:31:30.077Z,63.91
2022-10-05T17:35:41.135Z,64.86
2022-10-05T17:39:51.780Z,61.64
2022-10-05T17:43:50.657Z,59.34
2022-10-05T17:47:58.482Z,57.64
2022-10-05T18:29:33.963Z,60.59
2022-10-05T18:33:20.212Z,59.33
2022-10-05T18:36:51.113Z,60.69
2022-10-05T18:39:39.910Z,61.55
2022-10-05T18:42:37.286Z,65.13
2022-10-05T18:45:28.888Z,65.14
2022-10-05T18:48:21.707Z,62.60
2022-10-05T18:51:20.226Z,60.80
2022-10-05T18:54:13.772Z,58.36
2022-10-05T18:56:54.396Z,58.73
2022-10-05T18:59:39.692Z,59.57
2022-10-05T19:02:38.666Z,61.16
2022-10-05T19:08:49.845Z,64.67
2022-10-05T19:11:39.993Z,63.22
2022-10-05T19:14:32.809Z,60.91
2022-10-05T19:18:03.405Z,60.32
2022-10-05T19:20:59.295Z,59.07
2022-10-05T19:24:24.484Z,57.05
2022-10-05T19:27:25.512Z,59.20
2022-10-05T19:30:50.321Z,60.41
2022-10-05T19:33:39.801Z,61.50
2022-10-05T19:37:03.627Z,64.90
2022-10-05T19:40:17.059Z,63.28
2022-10-05T19:43:04.691Z,62.81
2022-10-05T19:46:22.675Z,60.15
2022-10-05T19:49:01.242Z,58.23
2022-10-05T19:51:55.249Z,58.83
2022-10-05T19:54:32.410Z,60.46
2022-10-05T19:57:17.074Z,61.66
2022-10-05T20:00:38.594Z,64.23
2022-10-05T20:04:30.153Z,63.70
2022-10-05T20:08:12.425Z,61.11
2022-10-05T20:12:05.080Z,58.69
2022-10-05T20:15:56.081Z,58.61
2022-10-05T20:19:39.734Z,61.08
2022-10-05T20:23:47.542Z,64.32
2022-10-05T20:28:03.989Z,62.07
2022-10-05T20:31:18.002Z,58.99
2022-10-05T20:34:49.866Z,58.23
2022-10-05T20:38:09.751Z,60.24
2022-10-05T20:41:04.585Z,62.04
2022-10-05T20:44:03.751Z,64.49
2022-10-05T20:46:46.758Z,63.58
2022-10-05T20:49:41.253Z,61.91
2022-10-05T20:52:37.802Z,60.46
2022-10-05T20:55:39.556Z,59.66
2022-10-05T20:59:28.542Z,58.15
2022-10-05T21:03:16.814Z,59.62
2022-10-05T21:06:55.826Z,63.58
2022-10-05T21:10:08.546Z,64.14
2022-10-05T21:12:58.713Z,61.21
2022-10-05T21:16:25.936Z,60.73
2022-10-05T21:19:24.865Z,58.63
2022-10-05T21:22:54.094Z,59.75
2022-10-05T21:26:22.013Z,61.38
2022-10-05T21:29:45.818Z,63.20
2022-10-05T21:33:37.107Z,65.31
2022-10-05T21:37:19.962Z,63.64
2022-10-05T21:41:29.409Z,62.14
2022-10-05T21:44:41.205Z,60.32
2022-10-05T21:47:53.717Z,59.46
2022-10-05T21:51:08.995Z,58.36
2022-10-05T21:54:59.130Z,60.97
2022-10-05T21:58:51.333Z,63.84
2022-10-05T22:03:00.615Z,63.88
2022-10-05T22:06:42.475Z,62.05
2022-10-05T22:09:54.303Z,60.73
2022-10-05T22:13:41.720Z,59.96
2022-10-05T22:16:43.686Z,58.59
2022-10-05T22:20:07.261Z,59.77
2022-10-05T22:23:58.917Z,61.55
2022-10-05T22:27:32.496Z,64.75
2022-10-05T22:31:25.542Z,63.41
2022-10-05T22:35:25.561Z,61.79
2022-10-05T22:39:25.014Z,60.22
2022-10-05T22:43:23.052Z,59.25
2022-10-05T22:47:22.530Z,58.68
2022-10-05T22:51:10.918Z,62.75
2022-10-05T22:54:20.119Z,65.20
2022-10-05T22:57:49.364Z,63.76
2022-10-05T23:01:54.173Z,61.79
2022-10-05T23:05:28.769Z,61.78
2022-10-05T23:08:29.384Z,60.96
2022-10-05T23:12:03.124Z,60.38
2022-10-05T23:15:26.124Z,59.71
2022-10-05T23:18:16.952Z,59.05
2022-10-05T23:21:34.153Z,59.90
2022-10-05T23:24:54.227Z,63.69
2022-10-05T23:27:52.969Z,64.87
2022-10-05T23:30:37.676Z,63.18
2022-10-05T23:34:20.206Z,62.33
2022-10-05T23:37:41.522Z,61.40
2022-10-05T23:41:19.842Z,60.50
2022-10-05T23:44:28.359Z,60.22
2022-10-05T23:48:06.471Z,59.21
2022-10-05T23:51:38.350Z,58.33
2022-10-05T23:55:13.377Z,60.14
2022-10-05T23:58:45.250Z,61.87
